sensor_id;sensor_type;location;lat;lon;timestamp;pressure;altitude;pressure_sealevel;temperature;humidity
58245;BME280;44550;43.864;25.986;2022-11-27T00:00:51;102407.41;;;3.79;95.87
58245;BME280;44550;43.864;25.986;2022-11-27T00:04:50;102401.03;;;4.02;95.04
58245;BME280;44550;43.864;25.986;2022-11-27T00:08:50;102388.59;;;3.96;93.39
58245;BME280;44550;43.864;25.986;2022-11-27T00:12:51;102381.31;;;4.04;92.95
58245;BME280;44550;43.864;25.986;2022-11-27T00:16:50;102402.84;;;4.33;92.24
58245;BME280;44550;43.864;25.986;2022-11-27T00:20:50;102377.94;;;4.35;90.86
58245;BME280;44550;43.864;25.986;2022-11-27T00:24:49;102402.31;;;4.68;90.15
58245;BME280;44550;43.864;25.986;2022-11-27T00:28:51;102413.97;;;4.76;88.11
58245;BME280;44550;43.864;25.986;2022-11-27T00:32:51;102387.56;;;4.67;87.95
58245;BME280;44550;43.864;25.986;2022-11-27T00:36:50;102414.34;;;4.82;87.85
58245;BME280;44550;43.864;25.986;2022-11-27T00:40:52;102412.81;;;4.86;87.78
58245;BME280;44550;43.864;25.986;2022-11-27T00:44:54;102416.22;;;4.26;88.41
58245;BME280;44550;43.864;25.986;2022-11-27T00:48:54;102415.50;;;4.13;90.09
58245;BME280;44550;43.864;25.986;2022-11-27T00:52:53;102422.50;;;3.58;92.05
58245;BME280;44550;43.864;25.986;2022-11-27T00:56:53;102425.34;;;3.63;94.03
58245;BME280;44550;43.864;25.986;2022-11-27T01:00:59;102420.28;;;3.92;94.06
58245;BME280;44550;43.864;25.986;2022-11-27T01:04:59;102412.97;;;4.00;92.81
58245;BME280;44550;43.864;25.986;2022-11-27T01:08:58;102420.03;;;4.03;93.37
58245;BME280;44550;43.864;25.986;2022-11-27T01:12:58;102420.34;;;4.22;92.83
58245;BME280;44550;43.864;25.986;2022-11-27T01:17:00;102427.09;;;4.20;92.28
58245;BME280;44550;43.864;25.986;2022-11-27T01:21:00;102386.56;;;3.91;93.03
58245;BME280;44550;43.864;25.986;2022-11-27T01:25:00;102422.28;;;4.11;93.18
58245;BME280;44550;43.864;25.986;2022-11-27T01:28:59;102423.63;;;4.05;93.33
58245;BME280;44550;43.864;25.986;2022-11-27T01:33:01;102427.78;;;4.03;93.40
58245;BME280;44550;43.864;25.986;2022-11-27T01:37:01;102425.94;;;3.72;94.13
58245;BME280;44550;43.864;25.986;2022-11-27T01:41:02;102434.84;;;3.77;94.87
58245;BME280;44550;43.864;25.986;2022-11-27T01:45:02;102430.81;;;3.67;95.09
58245;BME280;44550;43.864;25.986;2022-11-27T01:49:20;102426.88;;;3.59;95.47
58245;BME280;44550;43.864;25.986;2022-11-27T01:53:20;102428.06;;;3.64;95.82
58245;BME280;44550;43.864;25.986;2022-11-27T01:57:20;102429.75;;;3.50;95.96
58245;BME280;44550;43.864;25.986;2022-11-27T02:01:20;102421.13;;;3.50;97.18
58245;BME280;44550;43.864;25.986;2022-11-27T02:05:26;102415.34;;;3.41;96.85
58245;BME280;44550;43.864;25.986;2022-11-27T02:09:27;102424.78;;;3.53;97.57
58245;BME280;44550;43.864;25.986;2022-11-27T02:13:30;102420.81;;;3.59;97.93
58245;BME280;44550;43.864;25.986;2022-11-27T02:17:36;102411.03;;;3.68;97.35
58245;BME280;44550;43.864;25.986;2022-11-27T02:21:46;102416.56;;;3.74;96.86
58245;BME280;44550;43.864;25.986;2022-11-27T02:26:01;102403.47;;;3.71;96.52
58245;BME280;44550;43.864;25.986;2022-11-27T02:30:11;102420.69;;;3.57;96.90
58245;BME280;44550;43.864;25.986;2022-11-27T02:34:18;102426.56;;;3.68;96.98
58245;BME280;44550;43.864;25.986;2022-11-27T02:38:25;102426.66;;;3.56;97.33
58245;BME280;44550;43.864;25.986;2022-11-27T02:42:28;102417.66;;;3.36;97.71
58245;BME280;44550;43.864;25.986;2022-11-27T02:46:33;102424.84;;;3.27;98.73
58245;BME280;44550;43.864;25.986;2022-11-27T02:50:35;102423.72;;;3.37;98.43
58245;BME280;44550;43.864;25.986;2022-11-27T02:54:35;102411.66;;;3.50;97.84
58245;BME280;44550;43.864;25.986;2022-11-27T02:58:38;102419.91;;;3.58;97.64
58245;BME280;44550;43.864;25.986;2022-11-27T03:02:44;102416.56;;;3.74;96.84
58245;BME280;44550;43.864;25.986;2022-11-27T03:06:48;102413.56;;;3.81;96.09
58245;BME280;44550;43.864;25.986;2022-11-27T03:10:55;102413.81;;;3.71;95.26
58245;BME280;44550;43.864;25.986;2022-11-27T03:14:56;102411.09;;;3.69;95.11
58245;BME280;44550;43.864;25.986;2022-11-27T03:19:04;102396.56;;;3.43;95.56
58245;BME280;44550;43.864;25.986;2022-11-27T03:23:08;102420.03;;;3.46;96.06
58245;BME280;44550;43.864;25.986;2022-11-27T03:27:08;102430.50;;;3.48;96.42
58245;BME280;44550;43.864;25.986;2022-11-27T03:31:08;102407.06;;;3.60;96.31
58245;BME280;44550;43.864;25.986;2022-11-27T03:35:13;102427.56;;;3.57;96.39
58245;BME280;44550;43.864;25.986;2022-11-27T03:39:17;102431.81;;;3.28;96.61
58245;BME280;44550;43.864;25.986;2022-11-27T03:43:21;102428.25;;;3.13;97.38
58245;BME280;44550;43.864;25.986;2022-11-27T03:47:34;102440.88;;;3.21;97.70
58245;BME280;44550;43.864;25.986;2022-11-27T03:51:42;102443.06;;;3.15;98.33
58245;BME280;44550;43.864;25.986;2022-11-27T03:55:52;102424.22;;;3.31;98.19
58245;BME280;44550;43.864;25.986;2022-11-27T03:59:55;102447.13;;;3.38;97.97
58245;BME280;44550;43.864;25.986;2022-11-27T04:03:57;102445.25;;;3.22;98.38
58245;BME280;44550;43.864;25.986;2022-11-27T04:07:58;102447.22;;;3.26;98.82
58245;BME280;44550;43.864;25.986;2022-11-27T04:11:58;102439.34;;;3.38;98.63
58245;BME280;44550;43.864;25.986;2022-11-27T04:15:59;102436.78;;;3.38;98.50
58245;BME280;44550;43.864;25.986;2022-11-27T04:19:58;102438.53;;;3.52;97.87
58245;BME280;44550;43.864;25.986;2022-11-27T04:24:00;102447.88;;;3.50;98.49
58245;BME280;44550;43.864;25.986;2022-11-27T04:27:59;102444.84;;;3.71;98.26
58245;BME280;44550;43.864;25.986;2022-11-27T04:31:59;102447.91;;;3.79;97.55
58245;BME280;44550;43.864;25.986;2022-11-27T04:35:58;102443.91;;;3.42;97.74
58245;BME280;44550;43.864;25.986;2022-11-27T04:40:00;102453.03;;;3.50;98.64
58245;BME280;44550;43.864;25.986;2022-11-27T04:43:59;102454.13;;;3.54;98.62
58245;BME280;44550;43.864;25.986;2022-11-27T04:47:59;102449.06;;;3.56;98.78
58245;BME280;44550;43.864;25.986;2022-11-27T04:51:58;102454.16;;;3.82;98.55
58245;BME280;44550;43.864;25.986;2022-11-27T04:55:59;102448.69;;;4.06;97.78
58245;BME280;44550;43.864;25.986;2022-11-27T04:59:59;102416.94;;;4.08;96.30
58245;BME280;44550;43.864;25.986;2022-11-27T05:04:00;102444.72;;;4.26;95.87
58245;BME280;44550;43.864;25.986;2022-11-27T05:07:59;102434.47;;;4.42;95.52
58245;BME280;44550;43.864;25.986;2022-11-27T05:12:01;102436.50;;;4.33;94.56
58245;BME280;44550;43.864;25.986;2022-11-27T05:16:00;102443.72;;;4.23;94.54
58245;BME280;44550;43.864;25.986;2022-11-27T05:20:00;102444.16;;;4.16;95.39
58245;BME280;44550;43.864;25.986;2022-11-27T05:24:00;102444.00;;;4.28;95.07
58245;BME280;44550;43.864;25.986;2022-11-27T05:28:01;102403.78;;;4.05;94.78
58245;BME280;44550;43.864;25.986;2022-11-27T05:32:01;102448.03;;;4.38;94.63
58245;BME280;44550;43.864;25.986;2022-11-27T05:36:00;102450.44;;;4.35;94.30
58245;BME280;44550;43.864;25.986;2022-11-27T05:40:00;102448.75;;;4.50;94.90
58245;BME280;44550;43.864;25.986;2022-11-27T05:44:01;102447.25;;;4.68;93.41
58245;BME280;44550;43.864;25.986;2022-11-27T05:48:01;102444.81;;;4.57;93.73
58245;BME280;44550;43.864;25.986;2022-11-27T05:52:00;102455.72;;;4.81;92.87
58245;BME280;44550;43.864;25.986;2022-11-27T05:56:00;102458.50;;;4.69;92.69
58245;BME280;44550;43.864;25.986;2022-11-27T06:00:03;102457.69;;;4.70;92.94
58245;BME280;44550;43.864;25.986;2022-11-27T06:04:02;102442.16;;;4.55;92.64
58245;BME280;44550;43.864;25.986;2022-11-27T06:08:02;102449.13;;;4.41;93.28
58245;BME280;44550;43.864;25.986;2022-11-27T06:12:01;102429.72;;;4.50;92.49
58245;BME280;44550;43.864;25.986;2022-11-27T06:16:05;102480.56;;;4.92;91.77
58245;BME280;44550;43.864;25.986;2022-11-27T06:20:06;102485.38;;;4.86;91.76
58245;BME280;44550;43.864;25.986;2022-11-27T06:24:06;102480.38;;;5.04;91.67
58245;BME280;44550;43.864;25.986;2022-11-27T06:28:05;102476.09;;;4.89;90.85
58245;BME280;44550;43.864;25.986;2022-11-27T06:32:07;102449.25;;;4.30;92.63
58245;BME280;44550;43.864;25.986;2022-11-27T06:36:07;102484.78;;;4.60;93.34
58245;BME280;44550;43.864;25.986;2022-11-27T06:40:08;102472.34;;;4.55;92.27
58245;BME280;44550;43.864;25.986;2022-11-27T06:44:07;102450.25;;;3.89;94.98
58245;BME280;44550;43.864;25.986;2022-11-27T06:48:09;102471.78;;;4.03;96.92
58245;BME280;44550;43.864;25.986;2022-11-27T06:52:09;102458.41;;;4.10;96.90
58245;BME280;44550;43.864;25.986;2022-11-27T06:56:09;102474.28;;;4.29;96.12
58245;BME280;44550;43.864;25.986;2022-11-27T07:00:10;102445.03;;;4.02;95.13
58245;BME280;44550;43.864;25.986;2022-11-27T07:04:13;102482.59;;;4.53;95.24
58245;BME280;44550;43.864;25.986;2022-11-27T07:08:13;102482.16;;;4.45;93.57
58245;BME280;44550;43.864;25.986;2022-11-27T07:12:12;102477.16;;;4.48;94.74
58245;BME280;44550;43.864;25.986;2022-11-27T07:16:13;102472.78;;;4.92;93.77
58245;BME280;44550;43.864;25.986;2022-11-27T07:20:15;102465.72;;;4.60;93.04
58245;BME280;44550;43.864;25.986;2022-11-27T07:24:14;102471.47;;;4.54;93.84
58245;BME280;44550;43.864;25.986;2022-11-27T07:28:14;102468.56;;;4.50;94.10
58245;BME280;44550;43.864;25.986;2022-11-27T07:32:15;102465.78;;;4.32;95.14
58245;BME280;44550;43.864;25.986;2022-11-27T07:36:17;102444.84;;;4.14;95.72
58245;BME280;44550;43.864;25.986;2022-11-27T07:40:17;102471.22;;;4.21;96.47
58245;BME280;44550;43.864;25.986;2022-11-27T07:44:17;102439.78;;;3.87;97.24
58245;BME280;44550;43.864;25.986;2022-11-27T07:48:17;102473.91;;;4.23;97.34
58245;BME280;44550;43.864;25.986;2022-11-27T07:52:22;102476.28;;;4.48;96.78
58245;BME280;44550;43.864;25.986;2022-11-27T07:56:22;102483.44;;;4.67;95.23
58245;BME280;44550;43.864;25.986;2022-11-27T08:00:21;102471.56;;;4.70;94.65
58245;BME280;44550;43.864;25.986;2022-11-27T08:04:21;102486.19;;;4.85;95.07
58245;BME280;44550;43.864;25.986;2022-11-27T08:08:23;102473.84;;;4.95;94.07
58245;BME280;44550;43.864;25.986;2022-11-27T08:12:23;102496.84;;;5.04;93.65
58245;BME280;44550;43.864;25.986;2022-11-27T08:16:23;102494.66;;;5.12;92.83
58245;BME280;44550;43.864;25.986;2022-11-27T08:20:23;102499.84;;;5.27;92.49
58245;BME280;44550;43.864;25.986;2022-11-27T08:24:25;102497.38;;;5.45;91.88
58245;BME280;44550;43.864;25.986;2022-11-27T08:28:24;102463.31;;;5.38;91.12
58245;BME280;44550;43.864;25.986;2022-11-27T08:32:26;102501.31;;;5.69;90.31
58245;BME280;44550;43.864;25.986;2022-11-27T08:36:26;102499.47;;;5.67;89.44
58245;BME280;44550;43.864;25.986;2022-11-27T08:40:28;102503.50;;;5.61;89.59
58245;BME280;44550;43.864;25.986;2022-11-27T08:44:27;102511.47;;;5.64;89.23
58245;BME280;44550;43.864;25.986;2022-11-27T08:48:27;102499.06;;;5.75;88.29
58245;BME280;44550;43.864;25.986;2022-11-27T08:52:26;102502.63;;;5.30;88.72
58245;BME280;44550;43.864;25.986;2022-11-27T08:56:28;102485.00;;;5.24;89.25
58245;BME280;44550;43.864;25.986;2022-11-27T09:00:28;102515.69;;;5.02;90.76
58245;BME280;44550;43.864;25.986;2022-11-27T09:04:27;102499.06;;;4.83;91.42
58245;BME280;44550;43.864;25.986;2022-11-27T09:08:27;102509.00;;;4.90;92.64
58245;BME280;44550;43.864;25.986;2022-11-27T09:12:29;102509.16;;;5.23;91.52
58245;BME280;44550;43.864;25.986;2022-11-27T09:16:29;102501.84;;;5.47;90.86
58245;BME280;44550;43.864;25.986;2022-11-27T09:20:29;102490.88;;;5.68;90.70
58245;BME280;44550;43.864;25.986;2022-11-27T09:24:36;102469.72;;;5.76;89.52
58245;BME280;44550;43.864;25.986;2022-11-27T09:28:39;102477.38;;;6.06;88.13
58245;BME280;44550;43.864;25.986;2022-11-27T09:32:39;102465.34;;;5.92;87.34
58245;BME280;44550;43.864;25.986;2022-11-27T09:36:38;102425.66;;;5.61;88.38
58245;BME280;44550;43.864;25.986;2022-11-27T09:40:43;102467.94;;;5.92;88.38
58245;BME280;44550;43.864;25.986;2022-11-27T09:44:48;102467.63;;;6.18;88.17
58245;BME280;44550;43.864;25.986;2022-11-27T09:48:50;102453.88;;;6.19;86.54
58245;BME280;44550;43.864;25.986;2022-11-27T09:52:53;102461.72;;;6.04;87.28
58245;BME280;44550;43.864;25.986;2022-11-27T09:56:55;102459.78;;;6.00;87.53
58245;BME280;44550;43.864;25.986;2022-11-27T10:00:58;102453.78;;;6.01;88.04
58245;BME280;44550;43.864;25.986;2022-11-27T10:04:59;102461.66;;;6.03;88.68
58245;BME280;44550;43.864;25.986;2022-11-27T10:09:15;102447.00;;;5.88;89.16
58245;BME280;44550;43.864;25.986;2022-11-27T10:13:27;102455.88;;;6.08;88.48
58245;BME280;44550;43.864;25.986;2022-11-27T10:17:36;102446.16;;;6.04;88.79
58245;BME280;44550;43.864;25.986;2022-11-27T10:21:45;102442.09;;;6.26;88.46
58245;BME280;44550;43.864;25.986;2022-11-27T10:25:55;102436.72;;;6.39;87.82
58245;BME280;44550;43.864;25.986;2022-11-27T10:29:58;102431.75;;;6.62;87.22
58245;BME280;44550;43.864;25.986;2022-11-27T10:34:04;102429.09;;;6.60;86.34
58245;BME280;44550;43.864;25.986;2022-11-27T10:38:10;102410.00;;;6.59;86.08
58245;BME280;44550;43.864;25.986;2022-11-27T10:42:15;102423.00;;;6.77;85.13
58245;BME280;44550;43.864;25.986;2022-11-27T10:46:20;102406.16;;;6.69;85.29
58245;BME280;44550;43.864;25.986;2022-11-27T10:50:25;102413.97;;;6.69;85.54
58245;BME280;44550;43.864;25.986;2022-11-27T10:54:32;102384.53;;;6.88;84.85
58245;BME280;44550;43.864;25.986;2022-11-27T10:58:39;102412.66;;;7.15;82.93
58245;BME280;44550;43.864;25.986;2022-11-27T11:02:40;102404.59;;;7.09;83.43
58245;BME280;44550;43.864;25.986;2022-11-27T11:06:44;102404.56;;;7.26;83.38
58245;BME280;44550;43.864;25.986;2022-11-27T11:10:50;102395.13;;;7.28;83.15
58245;BME280;44550;43.864;25.986;2022-11-27T11:14:51;102360.50;;;7.12;83.54
58245;BME280;44550;43.864;25.986;2022-11-27T11:18:55;102383.63;;;7.23;83.36
58245;BME280;44550;43.864;25.986;2022-11-27T11:22:57;102386.69;;;6.97;84.23
58245;BME280;44550;43.864;25.986;2022-11-27T11:26:58;102368.63;;;7.00;84.54
58245;BME280;44550;43.864;25.986;2022-11-27T11:31:04;102373.63;;;7.33;83.47
58245;BME280;44550;43.864;25.986;2022-11-27T11:35:08;102345.28;;;7.01;82.77
58245;BME280;44550;43.864;25.986;2022-11-27T11:39:21;102366.03;;;7.00;83.86
58245;BME280;44550;43.864;25.986;2022-11-27T11:43:25;102354.44;;;6.93;84.35
58245;BME280;44550;43.864;25.986;2022-11-27T11:47:24;102362.59;;;7.19;83.99
58245;BME280;44550;43.864;25.986;2022-11-27T11:51:33;102362.91;;;7.07;83.79
58245;BME280;44550;43.864;25.986;2022-11-27T11:55:41;102357.59;;;6.86;83.99
58245;BME280;44550;43.864;25.986;2022-11-27T11:59:48;102350.78;;;7.07;83.94
58245;BME280;44550;43.864;25.986;2022-11-27T12:04:06;102288.31;;;6.88;83.43
58245;BME280;44550;43.864;25.986;2022-11-27T12:08:28;102350.31;;;7.16;82.82
58245;BME280;44550;43.864;25.986;2022-11-27T12:12:45;102339.06;;;7.35;82.79
58245;BME280;44550;43.864;25.986;2022-11-27T12:16:56;102340.41;;;7.27;82.50
58245;BME280;44550;43.864;25.986;2022-11-27T12:21:11;102331.00;;;7.48;82.35
58245;BME280;44550;43.864;25.986;2022-11-27T12:25:22;102322.41;;;7.12;82.72
58245;BME280;44550;43.864;25.986;2022-11-27T12:33:58;102337.81;;;6.90;83.82
58245;BME280;44550;43.864;25.986;2022-11-27T12:38:09;102313.75;;;7.13;83.83
58245;BME280;44550;43.864;25.986;2022-11-27T12:42:17;102312.22;;;7.36;82.99
58245;BME280;44550;43.864;25.986;2022-11-27T12:46:27;102312.41;;;7.41;82.69
58245;BME280;44550;43.864;25.986;2022-11-27T12:50:35;102310.09;;;7.66;81.69
58245;BME280;44550;43.864;25.986;2022-11-27T12:54:41;102300.50;;;7.46;81.04
58245;BME280;44550;43.864;25.986;2022-11-27T12:58:46;102314.25;;;7.43;81.44
58245;BME280;44550;43.864;25.986;2022-11-27T13:02:58;102309.78;;;7.21;82.06
58245;BME280;44550;43.864;25.986;2022-11-27T13:07:03;102310.34;;;7.14;82.79
58245;BME280;44550;43.864;25.986;2022-11-27T13:11:07;102311.84;;;7.09;83.72
58245;BME280;44550;43.864;25.986;2022-11-27T13:15:20;102310.69;;;7.02;84.69
58245;BME280;44550;43.864;25.986;2022-11-27T13:19:27;102311.88;;;6.91;85.36
58245;BME280;44550;43.864;25.986;2022-11-27T13:23:29;102322.75;;;6.82;85.53
58245;BME280;44550;43.864;25.986;2022-11-27T13:27:31;102315.69;;;6.80;86.59
58245;BME280;44550;43.864;25.986;2022-11-27T13:31:35;102306.47;;;6.87;86.96
58245;BME280;44550;43.864;25.986;2022-11-27T13:35:39;102316.03;;;7.05;86.83
58245;BME280;44550;43.864;25.986;2022-11-27T13:39:41;102314.25;;;7.24;86.02
58245;BME280;44550;43.864;25.986;2022-11-27T13:43:43;102306.66;;;7.09;86.10
58245;BME280;44550;43.864;25.986;2022-11-27T13:47:43;102314.06;;;7.01;86.81
58245;BME280;44550;43.864;25.986;2022-11-27T13:51:45;102304.84;;;7.08;86.56
58245;BME280;44550;43.864;25.986;2022-11-27T13:55:52;102309.78;;;7.02;86.63
58245;BME280;44550;43.864;25.986;2022-11-27T13:59:58;102291.00;;;6.72;87.07
58245;BME280;44550;43.864;25.986;2022-11-27T14:04:05;102316.47;;;6.97;87.50
58245;BME280;44550;43.864;25.986;2022-11-27T14:08:19;102310.09;;;6.90;87.19
58245;BME280;44550;43.864;25.986;2022-11-27T14:12:23;102312.69;;;6.90;87.44
58245;BME280;44550;43.864;25.986;2022-11-27T14:16:27;102309.34;;;6.93;87.53
58245;BME280;44550;43.864;25.986;2022-11-27T14:20:29;102313.28;;;7.02;87.31
58245;BME280;44550;43.864;25.986;2022-11-27T14:24:37;102290.19;;;6.91;87.16
58245;BME280;44550;43.864;25.986;2022-11-27T14:28:43;102305.94;;;6.94;87.83
58245;BME280;44550;43.864;25.986;2022-11-27T14:32:48;102289.16;;;6.87;87.86
58245;BME280;44550;43.864;25.986;2022-11-27T14:36:50;102291.59;;;6.84;88.37
58245;BME280;44550;43.864;25.986;2022-11-27T14:41:08;102287.13;;;6.99;88.00
58245;BME280;44550;43.864;25.986;2022-11-27T14:45:12;102299.19;;;6.79;88.42
58245;BME280;44550;43.864;25.986;2022-11-27T14:49:16;102284.19;;;6.74;88.74
58245;BME280;44550;43.864;25.986;2022-11-27T14:53:17;102292.44;;;6.65;89.37
58245;BME280;44550;43.864;25.986;2022-11-27T14:57:25;102291.88;;;6.53;90.04
58245;BME280;44550;43.864;25.986;2022-11-27T15:01:30;102286.28;;;6.63;90.36
58245;BME280;44550;43.864;25.986;2022-11-27T15:05:35;102283.16;;;6.70;89.97
58245;BME280;44550;43.864;25.986;2022-11-27T15:09:35;102286.91;;;6.95;89.38
58245;BME280;44550;43.864;25.986;2022-11-27T15:13:37;102291.84;;;7.08;87.68
58245;BME280;44550;43.864;25.986;2022-11-27T15:17:38;102293.78;;;7.12;87.39
58245;BME280;44550;43.864;25.986;2022-11-27T15:21:37;102300.91;;;7.16;87.73
58245;BME280;44550;43.864;25.986;2022-11-27T15:25:40;102309.06;;;7.43;86.74
58245;BME280;44550;43.864;25.986;2022-11-27T15:29:57;102293.34;;;7.61;85.70
58245;BME280;44550;43.864;25.986;2022-11-27T15:34:03;102271.78;;;7.64;84.44
58245;BME280;44550;43.864;25.986;2022-11-27T15:38:08;102279.72;;;7.67;84.00
58245;BME280;44550;43.864;25.986;2022-11-27T15:42:09;102301.22;;;7.82;83.57
58245;BME280;44550;43.864;25.986;2022-11-27T15:46:13;102307.47;;;7.86;83.35
58245;BME280;44550;43.864;25.986;2022-11-27T15:50:14;102308.03;;;7.79;83.33
58245;BME280;44550;43.864;25.986;2022-11-27T15:54:14;102314.31;;;7.84;83.76
58245;BME280;44550;43.864;25.986;2022-11-27T15:58:14;102310.19;;;7.89;82.80
58245;BME280;44550;43.864;25.986;2022-11-27T16:02:16;102269.50;;;7.71;83.34
58245;BME280;44550;43.864;25.986;2022-11-27T16:06:16;102290.25;;;7.89;83.54
58245;BME280;44550;43.864;25.986;2022-11-27T16:10:19;102297.34;;;8.14;82.97
58245;BME280;44550;43.864;25.986;2022-11-27T16:14:20;102293.75;;;8.32;81.83
58245;BME280;44550;43.864;25.986;2022-11-27T16:18:21;102296.50;;;8.35;81.34
58245;BME280;44550;43.864;25.986;2022-11-27T16:22:21;102287.09;;;8.38;81.37
58245;BME280;44550;43.864;25.986;2022-11-27T16:26:20;102288.13;;;8.42;80.67
58245;BME280;44550;43.864;25.986;2022-11-27T16:30:20;102287.28;;;8.43;80.01
58245;BME280;44550;43.864;25.986;2022-11-27T16:34:24;102266.31;;;8.40;79.75
58245;BME280;44550;43.864;25.986;2022-11-27T16:38:24;102281.00;;;8.38;79.36
58245;BME280;44550;43.864;25.986;2022-11-27T16:42:26;102273.28;;;8.20;80.21
58245;BME280;44550;43.864;25.986;2022-11-27T16:46:26;102284.66;;;8.01;80.76
58245;BME280;44550;43.864;25.986;2022-11-27T16:50:29;102280.00;;;7.73;82.04
58245;BME280;44550;43.864;25.986;2022-11-27T16:54:28;102282.78;;;7.77;82.85
58245;BME280;44550;43.864;25.986;2022-11-27T16:58:30;102278.56;;;8.00;82.57
58245;BME280;44550;43.864;25.986;2022-11-27T17:02:30;102284.41;;;8.16;81.76
58245;BME280;44550;43.864;25.986;2022-11-27T17:06:34;102287.97;;;8.18;81.13
58245;BME280;44550;43.864;25.986;2022-11-27T17:10:34;102289.34;;;7.89;81.38
58245;BME280;44550;43.864;25.986;2022-11-27T17:14:34;102292.41;;;7.59;82.44
58245;BME280;44550;43.864;25.986;2022-11-27T17:18:35;102282.56;;;7.33;83.56
58245;BME280;44550;43.864;25.986;2022-11-27T17:22:37;102295.50;;;7.50;83.96
58245;BME280;44550;43.864;25.986;2022-11-27T17:26:37;102291.91;;;7.68;83.35
58245;BME280;44550;43.864;25.986;2022-11-27T17:30:38;102293.34;;;7.61;82.62
58245;BME280;44550;43.864;25.986;2022-11-27T17:34:40;102294.41;;;7.45;83.35
58245;BME280;44550;43.864;25.986;2022-11-27T17:38:42;102287.28;;;7.41;83.76
58245;BME280;44550;43.864;25.986;2022-11-27T17:42:42;102290.91;;;7.45;84.19
58245;BME280;44550;43.864;25.986;2022-11-27T17:46:42;102275.00;;;7.58;84.04
58245;BME280;44550;43.864;25.986;2022-11-27T17:50:47;102284.31;;;7.72;83.41
58245;BME280;44550;43.864;25.986;2022-11-27T17:54:49;102281.28;;;7.83;82.76
58245;BME280;44550;43.864;25.986;2022-11-27T17:58:48;102280.19;;;7.77;82.35
58245;BME280;44550;43.864;25.986;2022-11-27T18:02:47;102274.50;;;7.67;82.64
58245;BME280;44550;43.864;25.986;2022-11-27T18:06:47;102275.41;;;7.67;83.21
58245;BME280;44550;43.864;25.986;2022-11-27T18:10:48;102270.00;;;7.63;83.04
58245;BME280;44550;43.864;25.986;2022-11-27T18:14:49;102269.78;;;7.58;83.42
58245;BME280;44550;43.864;25.986;2022-11-27T18:18:58;102272.94;;;7.70;83.53
58245;BME280;44550;43.864;25.986;2022-11-27T18:22:57;102245.44;;;7.56;83.04
58245;BME280;44550;43.864;25.986;2022-11-27T18:26:59;102255.88;;;7.58;83.53
58245;BME280;44550;43.864;25.986;2022-11-27T18:31:07;102262.78;;;7.76;83.43
58245;BME280;44550;43.864;25.986;2022-11-27T18:35:09;102253.78;;;7.68;82.69
58245;BME280;44550;43.864;25.986;2022-11-27T18:39:08;102262.91;;;7.59;82.96
58245;BME280;44550;43.864;25.986;2022-11-27T18:43:10;102264.22;;;7.49;84.08
58245;BME280;44550;43.864;25.986;2022-11-27T18:47:10;102268.84;;;7.56;84.55
58245;BME280;44550;43.864;25.986;2022-11-27T18:51:11;102273.00;;;7.72;84.30
58245;BME280;44550;43.864;25.986;2022-11-27T18:55:11;102270.38;;;7.91;83.49
58245;BME280;44550;43.864;25.986;2022-11-27T18:59:13;102267.44;;;7.84;82.94
58245;BME280;44550;43.864;25.986;2022-11-27T19:03:14;102263.41;;;7.71;83.23
58245;BME280;44550;43.864;25.986;2022-11-27T19:07:13;102266.13;;;7.53;83.57
58245;BME280;44550;43.864;25.986;2022-11-27T19:11:14;102270.72;;;7.39;83.51
58245;BME280;44550;43.864;25.986;2022-11-27T19:15:17;102263.88;;;7.22;84.56
58245;BME280;44550;43.864;25.986;2022-11-27T19:19:22;102266.13;;;7.14;85.42
58245;BME280;44550;43.864;25.986;2022-11-27T19:23:50;102261.78;;;7.15;85.89
58245;BME280;44550;43.864;25.986;2022-11-27T19:27:53;102257.56;;;7.17;85.89
58245;BME280;44550;43.864;25.986;2022-11-27T19:31:54;102261.59;;;7.10;85.86
58245;BME280;44550;43.864;25.986;2022-11-27T19:35:58;102254.25;;;7.01;85.63
58245;BME280;44550;43.864;25.986;2022-11-27T19:39:58;102250.97;;;6.86;85.77
58245;BME280;44550;43.864;25.986;2022-11-27T19:43:58;102227.44;;;6.65;86.42
58245;BME280;44550;43.864;25.986;2022-11-27T19:48:02;102256.81;;;6.63;86.96
58245;BME280;44550;43.864;25.986;2022-11-27T19:52:01;102273.88;;;6.57;87.80
58245;BME280;44550;43.864;25.986;2022-11-27T19:56:02;102280.69;;;6.55;88.12
58245;BME280;44550;43.864;25.986;2022-11-27T20:00:03;102274.19;;;6.10;89.45
58245;BME280;44550;43.864;25.986;2022-11-27T20:04:11;102281.34;;;5.98;90.94
58245;BME280;44550;43.864;25.986;2022-11-27T20:08:12;102286.19;;;5.92;91.83
58245;BME280;44550;43.864;25.986;2022-11-27T20:12:11;102262.66;;;6.05;91.70
58245;BME280;44550;43.864;25.986;2022-11-27T20:16:13;102279.25;;;6.43;90.75
58245;BME280;44550;43.864;25.986;2022-11-27T20:20:16;102271.78;;;6.68;89.81
58245;BME280;44550;43.864;25.986;2022-11-27T20:24:15;102249.66;;;6.76;88.81
58245;BME280;44550;43.864;25.986;2022-11-27T20:28:14;102275.06;;;7.01;87.71
58245;BME280;44550;43.864;25.986;2022-11-27T20:32:14;102284.66;;;7.02;87.19
58245;BME280;44550;43.864;25.986;2022-11-27T20:36:16;102277.91;;;7.06;86.85
58245;BME280;44550;43.864;25.986;2022-11-27T20:40:16;102279.75;;;7.28;86.28
58245;BME280;44550;43.864;25.986;2022-11-27T20:44:20;102274.53;;;7.47;85.04
58245;BME280;44550;43.864;25.986;2022-11-27T20:48:21;102238.09;;;7.28;84.45
58245;BME280;44550;43.864;25.986;2022-11-27T20:52:23;102278.84;;;7.27;84.19
58245;BME280;44550;43.864;25.986;2022-11-27T20:56:22;102276.88;;;7.02;85.49
58245;BME280;44550;43.864;25.986;2022-11-27T21:00:22;102260.09;;;6.96;86.07
58245;BME280;44550;43.864;25.986;2022-11-27T21:04:23;102272.88;;;7.11;85.39
58245;BME280;44550;43.864;25.986;2022-11-27T21:08:25;102264.25;;;6.92;85.32
58245;BME280;44550;43.864;25.986;2022-11-27T21:12:25;102269.91;;;6.83;85.84